sensor_id;sensor_type;location;lat;lon;timestamp;pressure;altitude;pressure_sealevel;temperature;humidity
35758;BME280;21879;50.110;18.900;2023-03-24T00:04:27;98136.22;;;15.28;50.91
35758;BME280;21879;50.110;18.900;2023-03-24T00:14:54;98133.95;;;15.37;50.93
35758;BME280;21879;50.110;18.900;2023-03-24T00:25:22;98132.11;;;15.44;50.94
35758;BME280;21879;50.110;18.900;2023-03-24T00:35:51;98122.77;;;15.46;50.97
35758;BME280;21879;50.110;18.900;2023-03-24T00:46:17;98107.80;;;15.56;51.00
35758;BME280;21879;50.110;18.900;2023-03-24T00:56:52;98099.92;;;15.43;50.96
35758;BME280;21879;50.110;18.900;2023-03-24T01:07:19;98079.14;;;15.45;51.24
35758;BME280;21879;50.110;18.900;2023-03-24T01:17:45;98071.06;;;15.60;51.44
35758;BME280;21879;50.110;18.900;2023-03-24T01:28:12;98069.13;;;15.55;51.12
35758;BME280;21879;50.110;18.900;2023-03-24T01:38:38;98063.48;;;15.39;51.13
35758;BME280;21879;50.110;18.900;2023-03-24T01:49:06;98053.53;;;15.24;51.49
35758;BME280;21879;50.110;18.900;2023-03-24T01:59:34;98052.30;;;15.29;51.71
35758;BME280;21879;50.110;18.900;2023-03-24T02:10:02;98049.83;;;15.29;51.76
35758;BME280;21879;50.110;18.900;2023-03-24T02:42:46;98023.34;;;15.31;52.25
35758;BME280;21879;50.110;18.900;2023-03-24T02:53:18;98010.39;;;15.17;52.20
35758;BME280;21879;50.110;18.900;2023-03-24T03:03:46;98001.55;;;15.19;52.54
35758;BME280;21879;50.110;18.900;2023-03-24T03:14:18;97999.29;;;15.14;52.92
35758;BME280;21879;50.110;18.900;2023-03-24T03:24:48;98000.03;;;15.13;53.87
35758;BME280;21879;50.110;18.900;2023-03-24T03:35:18;98000.20;;;15.09;54.34
35758;BME280;21879;50.110;18.900;2023-03-24T03:45:47;97996.43;;;14.97;54.92
35758;BME280;21879;50.110;18.900;2023-03-24T03:56:14;97991.06;;;14.87;55.65
35758;BME280;21879;50.110;18.900;2023-03-24T04:06:45;97995.48;;;14.81;56.34
35758;BME280;21879;50.110;18.900;2023-03-24T04:17:28;97997.13;;;14.70;56.71
35758;BME280;21879;50.110;18.900;2023-03-24T04:28:06;98007.89;;;14.53;57.32
35758;BME280;21879;50.110;18.900;2023-03-24T04:38:34;98005.10;;;14.42;58.20
35758;BME280;21879;50.110;18.900;2023-03-24T04:49:01;97996.19;;;14.32;58.68
35758;BME280;21879;50.110;18.900;2023-03-24T04:59:28;97988.88;;;14.26;59.74
35758;BME280;21879;50.110;18.900;2023-03-24T05:09:57;97995.27;;;14.24;60.32
35758;BME280;21879;50.110;18.900;2023-03-24T05:20:23;97993.75;;;14.27;60.94
35758;BME280;21879;50.110;18.900;2023-03-24T05:30:48;97990.86;;;14.15;61.23
35758;BME280;21879;50.110;18.900;2023-03-24T05:41:14;97986.86;;;13.99;61.92
35758;BME280;21879;50.110;18.900;2023-03-24T05:51:40;97977.42;;;13.99;62.55
35758;BME280;21879;50.110;18.900;2023-03-24T06:02:05;97978.92;;;13.97;62.96
35758;BME280;21879;50.110;18.900;2023-03-24T06:12:32;97978.82;;;14.00;63.40
35758;BME280;21879;50.110;18.900;2023-03-24T06:22:58;97978.55;;;14.12;64.00
35758;BME280;21879;50.110;18.900;2023-03-24T06:33:24;97978.14;;;14.19;64.53
35758;BME280;21879;50.110;18.900;2023-03-24T06:43:50;97973.52;;;14.31;64.94
35758;BME280;21879;50.110;18.900;2023-03-24T06:54:16;97968.33;;;14.34;65.21
35758;BME280;21879;50.110;18.900;2023-03-24T07:04:42;97970.16;;;14.46;65.34
35758;BME280;21879;50.110;18.900;2023-03-24T07:15:10;97969.70;;;14.59;65.57
35758;BME280;21879;50.110;18.900;2023-03-24T07:25:38;97966.98;;;14.57;65.03
35758;BME280;21879;50.110;18.900;2023-03-24T07:36:04;97959.80;;;14.62;65.82
35758;BME280;21879;50.110;18.900;2023-03-24T07:46:30;97940.40;;;14.75;65.76
35758;BME280;21879;50.110;18.900;2023-03-24T07:56:57;97926.40;;;14.80;66.10
35758;BME280;21879;50.110;18.900;2023-03-24T08:07:22;97924.65;;;15.19;67.07
35758;BME280;21879;50.110;18.900;2023-03-24T08:17:49;97918.38;;;15.65;66.55
35758;BME280;21879;50.110;18.900;2023-03-24T08:28:15;97905.38;;;15.99;64.66
35758;BME280;21879;50.110;18.900;2023-03-24T08:38:42;97900.23;;;16.24;62.79
35758;BME280;21879;50.110;18.900;2023-03-24T08:49:08;97886.96;;;16.46;61.29
35758;BME280;21879;50.110;18.900;2023-03-24T08:59:34;97867.77;;;16.66;59.67
35758;BME280;21879;50.110;18.900;2023-03-24T09:10:00;97859.04;;;16.88;58.63
35758;BME280;21879;50.110;18.900;2023-03-24T09:20:26;97847.19;;;17.08;57.18
35758;BME280;21879;50.110;18.900;2023-03-24T09:30:57;97841.11;;;17.27;56.40
35758;BME280;21879;50.110;18.900;2023-03-24T09:41:27;97837.70;;;17.43;54.40
35758;BME280;21879;50.110;18.900;2023-03-24T09:52:02;97818.16;;;17.46;53.77
35758;BME280;21879;50.110;18.900;2023-03-24T10:02:29;97813.71;;;17.54;53.39
35758;BME280;21879;50.110;18.900;2023-03-24T10:12:59;97808.06;;;17.58;52.74
35758;BME280;21879;50.110;18.900;2023-03-24T10:23:33;97797.89;;;17.51;52.04
35758;BME280;21879;50.110;18.900;2023-03-24T10:34:01;97794.43;;;17.64;52.01
35758;BME280;21879;50.110;18.900;2023-03-24T10:44:28;97781.44;;;17.84;51.40
35758;BME280;21879;50.110;18.900;2023-03-24T10:55:02;97774.77;;;17.93;50.81
35758;BME280;21879;50.110;18.900;2023-03-24T11:05:32;97767.37;;;18.06;50.59
35758;BME280;21879;50.110;18.900;2023-03-24T11:16:07;97761.30;;;18.18;50.17
35758;BME280;21879;50.110;18.900;2023-03-24T11:26:36;97748.85;;;18.23;49.67
35758;BME280;21879;50.110;18.900;2023-03-24T11:37:03;97739.81;;;18.28;49.59
35758;BME280;21879;50.110;18.900;2023-03-24T11:47:33;97722.79;;;18.21;49.08
35758;BME280;21879;50.110;18.900;2023-03-24T11:58:04;97713.29;;;18.08;49.22
35758;BME280;21879;50.110;18.900;2023-03-24T12:08:44;97703.13;;;18.10;49.36
35758;BME280;21879;50.110;18.900;2023-03-24T12:19:43;97696.43;;;18.11;49.17
35758;BME280;21879;50.110;18.900;2023-03-24T12:30:19;97680.49;;;18.06;48.89
35758;BME280;21879;50.110;18.900;2023-03-24T12:52:14;97661.19;;;18.05;49.02
35758;BME280;21879;50.110;18.900;2023-03-24T13:02:46;97646.82;;;18.07;49.02
35758;BME280;21879;50.110;18.900;2023-03-24T13:13:19;97642.30;;;18.16;49.27
35758;BME280;21879;50.110;18.900;2023-03-24T13:23:50;97638.77;;;18.22;49.11
35758;BME280;21879;50.110;18.900;2023-03-24T13:34:26;97632.20;;;18.23;48.86
35758;BME280;21879;50.110;18.900;2023-03-24T13:44:54;97623.94;;;18.26;48.87
35758;BME280;21879;50.110;18.900;2023-03-24T13:55:25;97611.88;;;18.25;49.09
35758;BME280;21879;50.110;18.900;2023-03-24T14:05:59;97606.56;;;18.22;49.22
35758;BME280;21879;50.110;18.900;2023-03-24T14:16:43;97606.55;;;18.23;49.36
35758;BME280;21879;50.110;18.900;2023-03-24T14:27:29;97594.76;;;18.26;48.68
35758;BME280;21879;50.110;18.900;2023-03-24T14:38:00;97573.77;;;18.33;46.91
35758;BME280;21879;50.110;18.900;2023-03-24T14:48:42;97560.30;;;18.40;46.20
35758;BME280;21879;50.110;18.900;2023-03-24T14:59:26;97554.80;;;18.38;45.57
35758;BME280;21879;50.110;18.900;2023-03-24T15:09:54;97556.33;;;18.33;45.66
35758;BME280;21879;50.110;18.900;2023-03-24T15:20:24;97550.33;;;18.27;45.47
35758;BME280;21879;50.110;18.900;2023-03-24T15:30:51;97552.92;;;18.19;45.65
35758;BME280;21879;50.110;18.900;2023-03-24T15:41:20;97561.53;;;18.10;45.59
35758;BME280;21879;50.110;18.900;2023-03-24T15:51:48;97574.51;;;17.95;46.28
35758;BME280;21879;50.110;18.900;2023-03-24T16:02:22;97590.76;;;17.75;47.40
35758;BME280;21879;50.110;18.900;2023-03-24T16:12:50;97590.40;;;17.50;48.19
35758;BME280;21879;50.110;18.900;2023-03-24T16:23:16;97595.73;;;17.30;48.99
35758;BME280;21879;50.110;18.900;2023-03-24T16:33:42;97612.50;;;17.05;49.88
35758;BME280;21879;50.110;18.900;2023-03-24T16:44:08;97619.54;;;16.85;50.77
35758;BME280;21879;50.110;18.900;2023-03-24T16:54:34;97618.66;;;16.64;51.49
35758;BME280;21879;50.110;18.900;2023-03-24T17:05:00;97633.29;;;16.45;52.04
35758;BME280;21879;50.110;18.900;2023-03-24T17:15:28;97643.19;;;16.15;53.35
35758;BME280;21879;50.110;18.900;2023-03-24T17:25:54;97644.42;;;15.75;54.91
35758;BME280;21879;50.110;18.900;2023-03-24T17:36:20;97606.65;;;15.31;56.47
35758;BME280;21879;50.110;18.900;2023-03-24T17:46:45;97665.39;;;14.98;58.41
35758;BME280;21879;50.110;18.900;2023-03-24T17:57:11;97679.99;;;14.88;59.44
35758;BME280;21879;50.110;18.900;2023-03-24T18:07:38;97693.54;;;14.78;60.04
35758;BME280;21879;50.110;18.900;2023-03-24T18:18:04;97683.58;;;14.66;60.31
35758;BME280;21879;50.110;18.900;2023-03-24T18:28:30;97661.81;;;14.55;60.43
35758;BME280;21879;50.110;18.900;2023-03-24T18:38:58;97655.73;;;14.37;60.81
35758;BME280;21879;50.110;18.900;2023-03-24T18:49:24;97661.48;;;14.29;60.94
35758;BME280;21879;50.110;18.900;2023-03-24T18:59:50;97645.44;;;14.19;61.02
35758;BME280;21879;50.110;18.900;2023-03-24T19:10:16;97655.16;;;14.08;61.56
35758;BME280;21879;50.110;18.900;2023-03-24T19:20:42;97642.54;;;14.00;61.74
35758;BME280;21879;50.110;18.900;2023-03-24T19:31:11;97632.60;;;13.99;61.98
35758;BME280;21879;50.110;18.900;2023-03-24T19:41:38;97633.44;;;14.05;62.00
35758;BME280;21879;50.110;18.900;2023-03-24T19:52:04;97641.17;;;14.12;61.85
35758;BME280;21879;50.110;18.900;2023-03-24T20:02:30;97648.06;;;14.19;61.68
35758;BME280;21879;50.110;18.900;2023-03-24T20:12:56;97648.02;;;14.24;61.41
35758;BME280;21879;50.110;18.900;2023-03-24T20:23:21;97647.03;;;14.27;61.32
35758;BME280;21879;50.110;18.900;2023-03-24T20:33:47;97640.17;;;14.28;61.22
35758;BME280;21879;50.110;18.900;2023-03-24T20:44:13;97650.96;;;14.25;61.12
35758;BME280;21879;50.110;18.900;2023-03-24T20:54:39;97648.56;;;14.28;61.08
35758;BME280;21879;50.110;18.900;2023-03-24T21:05:06;97640.28;;;14.30;61.02
35758;BME280;21879;50.110;18.900;2023-03-24T21:15:32;97646.50;;;14.23;60.89
35758;BME280;21879;50.110;18.900;2023-03-24T21:25:59;97648.96;;;14.22;61.01
35758;BME280;21879;50.110;18.900;2023-03-24T21:36:25;97646.40;;;14.21;61.03
35758;BME280;21879;50.110;18.900;2023-03-24T21:46:53;97646.90;;;14.34;61.23
35758;BME280;21879;50.110;18.900;2023-03-24T21:57:20;97632.64;;;14.41;60.94
35758;BME280;21879;50.110;18.900;2023-03-24T22:07:46;97632.55;;;14.35;60.93
35758;BME280;21879;50.110;18.900;2023-03-24T22:18:12;97633.14;;;14.37;60.95
35758;BME280;21879;50.110;18.900;2023-03-24T22:28:39;97635.02;;;14.34;61.02
35758;BME280;21879;50.110;18.900;2023-03-24T22:39:05;97622.53;;;14.40;61.19
35758;BME280;21879;50.110;18.900;2023-03-24T22:49:32;97609.45;;;14.31;61.08
35758;BME280;21879;50.110;18.900;2023-03-24T23:00:00;97608.08;;;14.18;61.38
35758;BME280;21879;50.110;18.900;2023-03-24T23:10:26;97610.29;;;14.15;61.66
35758;BME280;21879;50.110;18.900;2023-03-24T23:21:01;97611.27;;;14.13;61.78
35758;BME280;21879;50.110;18.900;2023-03-24T23:31:28;97619.83;;;14.08;61.99
35758;BME280;21879;50.110;18.900;2023-03-24T23:41:53;97602.38;;;14.07;62.17
35758;BME280;21879;50.110;18.900;2023-03-24T23:52:19;97592.68;;;14.10;62.37
